This is the latest recevied weather packets stored in our database for station/object KN6ETB-1. If no packets are shown the sender has not sent any weather packets the latest 1 day(s).
| Time | Temp. | Humidity | Pressure | Rain* | Wind** | Luminosity | Snow |
|---|---|---|---|---|---|---|---|
| 1836274622 | 23.33° C | 73% | 1011.6 hPa | 0 mm | 0.89 m/s, 329° | 0 W/m² | - |
| 1836274475 | 22.78° C | 74% | 1011.7 hPa | 0 mm | 0.89 m/s, 315° | 0 W/m² | - |
| 1836274320 | 23.33° C | 72% | 1011.4 hPa | 0 mm | 0.45 m/s, 300° | 0 W/m² | - |
| 1836274174 | 22.78° C | 73% | 1011.6 hPa | 0 mm | 0.45 m/s, 316° | 0 W/m² | - |
| 1836274019 | 23.33° C | 72% | 1011.3 hPa | 0 mm | 0.45 m/s, 308° | 0 W/m² | - |
| 1778031050 | 17.78° C | 73% | 1012.4 hPa | 0 mm | 3.13 m/s, 199° | 70 W/m² | - |
| 1778030746 | 17.78° C | 73% | 1012.6 hPa | 0 mm | 2.24 m/s, 207° | 69 W/m² | - |
| 1778030443 | 18.33° C | 73% | 1012.5 hPa | 0 mm | 1.34 m/s, 186° | 82 W/m² | - |
| 1778030141 | 18.33° C | 72% | 1012.6 hPa | 0 mm | 1.34 m/s, 212° | 84 W/m² | - |
| 1778029837 | 18.33° C | 71% | 1012.4 hPa | 0 mm | 2.68 m/s, 217° | 108 W/m² | - |
| 1778029537 | 18.89° C | 71% | 1012.2 hPa | 0 mm | 1.34 m/s, 186° | 107 W/m² | - |
| 1778029233 | 18.89° C | 71% | 1012.2 hPa | 0 mm | 1.79 m/s, 230° | 111 W/m² | - |
| 1778028930 | 18.89° C | 70% | 1012 hPa | 0 mm | 3.13 m/s, 180° | 131 W/m² | - |
| 1778028625 | 18.89° C | 70% | 1012.2 hPa | 0 mm | 0.89 m/s, 219° | 154 W/m² | - |
| 1778028323 | 18.89° C | 69% | 1012.2 hPa | 0 mm | 1.79 m/s, 202° | 167 W/m² | - |
| 1778028020 | 19.44° C | 69% | 1012.3 hPa | 0 mm | 1.34 m/s, 189° | 178 W/m² | - |
| 1778027716 | 18.89° C | 70% | 1012.2 hPa | 0 mm | 1.79 m/s, 185° | 278 W/m² | - |
| 1778027412 | 18.89° C | 70% | 1012.3 hPa | 0 mm | 1.34 m/s, 185° | 206 W/m² | - |
| 1778027108 | 18.89° C | 70% | 1012.2 hPa | 0 mm | 1.34 m/s, 239° | 209 W/m² | - |
| 1778026804 | 18.89° C | 71% | 1012.2 hPa | 0 mm | 1.79 m/s, 185° | 203 W/m² | - |
| 1778026501 | 18.89° C | 70% | 1012.1 hPa | 0 mm | 1.34 m/s, 233° | 189 W/m² | - |
| 1778026198 | 19.44° C | 70% | 1012.3 hPa | 0 mm | 1.34 m/s, 193° | 200 W/m² | - |
| 1778025895 | 18.89° C | 71% | 1012.1 hPa | 0 mm | 2.24 m/s, 222° | 235 W/m² | - |
| 1778025592 | 18.89° C | 71% | 1012.3 hPa | 0 mm | 1.34 m/s, 227° | 308 W/m² | - |
| 1778025291 | 18.89° C | 70% | 1012.2 hPa | 0 mm | 1.79 m/s, 202° | 239 W/m² | - |
* Rain latest hour (hover to see other rain measurements)
** Current wind speed in m/s (hover to see current wind gust speed)